INFORMACIÓN METAR y TAF
METAR FOR LEVX
ADDS - METARS form results

(1005 UTC 09 March 2021)
Data provider http://aviationweather.gov/metar/data/
 
METAR text: LEVX 091000Z 18003KT 100V250 CAVOK 08/03 Q1022 NOSIG
Conditions at: LEVX (VIGO/PEINADOR , ES) observed 1000 UTC 09 March 2021
Temperature: 8.0°C (46°F)
Dewpoint: 3.0°C (37°F) [RH = 71%]
Pressure (altimeter): 30.18 inches Hg (1022.0 mb)
Winds: from the S (180 degrees) at 3 MPH (3 knots; 1.5 m/s)
Visibility: 6 or more miles (10+ km)
Ceiling: ceiling and visibility are OK
Clouds: unknown
Weather: no significant weather observed at this time

METAR text: LEVX 090930Z VRB02KT CAVOK 08/03 Q1022 NOSIG
Conditions at: LEVX (VIGO/PEINADOR , ES) observed 0930 UTC 09 March 2021
Temperature: 8.0°C (46°F)
Dewpoint: 3.0°C (37°F) [RH = 71%]
Pressure (altimeter): 30.18 inches Hg (1022.0 mb)
Winds: variable direction winds at 2 MPH (2 knots; 1.0 m/s)
Visibility: 6 or more miles (10+ km)
Ceiling: ceiling and visibility are OK
Clouds: unknown
Weather: no significant weather observed at this time

Forecast for: LEVX (VIGO/PEINADOR , ES)
Text: TAF LEVX 090500Z 0906/1006 VRB04KT CAVOK TX13/0914Z TN01/1006Z
Forecast period: 0600 UTC 09 March 2021 to 0600 UTC 10 March 2021
Forecast type: FROM: standard forecast or significant change
Winds: variable direction winds at 5 MPH (4 knots; 2.1 m/s)
Visibility: 6 or more miles (10+ km)
Ceiling: unknown
Clouds: missing
Weather: no significant weather forecast for this period
Text: TEMPO 0906/0914 36010KT
Forecast period: 0600 to 1400 UTC 09 March 2021
Forecast type: TEMPORARY: The following changes expected for less than half the time period
Winds: from the N (360 degrees) at 12 MPH (10 knots; 5.1 m/s)
Visibility: missing
Ceiling: unknown
Clouds: missing
Weather: no significant weather forecast for this period
Text: TEMPO 0914/0919 28010KT
Forecast period: 1400 to 1900 UTC 09 March 2021
Forecast type: TEMPORARY: The following changes expected for less than half the time period
Winds: from the W (280 degrees) at 12 MPH (10 knots; 5.1 m/s)
Visibility: missing
Ceiling: unknown
Clouds: missing
Weather: no significant weather forecast for this period

 MAPA DE AEROPUERTO

 INFORMACIÓN DE PISTA
Pista 02 Longitud 7874 ft Ancho 148 ft
Elevación 855 ft Umbral desplazado 0 ft Rumbo de pista 11
Pista 20 Longitud 7874 ft Ancho 148 ft
Elevación 829 ft Umbral desplazado 0 ft Rumbo de pista 191

 FRECUANCIAS DEL AEROPUERTO
Tipo APP Nombre SANTIAGO A Frecuencia 120.2 MHZ
Tipo GND Nombre GND Frecuencia 121.7 MHZ
Tipo TWR Nombre TWR Frecuencia 118.45 MHZ

 RADIO AYUDAS DEL AEROPUERTO
Tipo VOR-DME Nombre Vigo Frecuencia 113600 KHZ
Tipo NDB Nombre Vigo Frecuencia 345 KHZ
Tipo NDB Nombre Vigo Frecuencia 433 KHZ



Powered by Virtual Airlines Manager [v2.6.2]